Details From EIME - Baldonnel Casement
To EGPO - Stornoway
Flight Number -
Tags Generated
Created
Modified
Stats Distance 295 nm / 547 km
Max Altitude 0 ft / 0 m
Waypoints 3
Social Downloads 1
Likes 0
Share VATSIM

Download

Looking for another format? Having issues loading an existing format? Contact us
Advertisement - Login to hide

Notes

Generated

Route

EIME STN08 EGPO

ID Type Via Altitude Latitude Longitude Leg Dist Tot Dist Heading (true) Name
O EIME APT - 0 ft / 0 m 53.29358˚ -6.45381˚ - 0 nm - -
STN08 FIX - 0 ft / 0 m 58.10638˚ -6.34804˚ 289 nm 289 nm 1° / 1° -
O EGPO APT - 0 ft / 0 m 58.21205˚ -6.33581˚ 6 nm 295 nm 3° / 3° -

Altitude Profile

Advertisement - Login to hide

Weather


0- 5 10 15 20 25 30 35+ Temperature / ° C

Clouds and Precipitation
Forecast for 2017-12-17 00:00 UTC. Updated an hour ago

Ground ~20,000 ft ~40,000 ft Winds

EIME

Details ICAO EIME
Name Baldonnel Casement
Region Ireland
Timezone Europe/Dublin (UTC+0.0)
Stats Elevation 319 ft / 97 m (AMSL)
Location 53.300768° -6.451018°
Runways 2
Magnetic Variation 3.075° W

METAR

EIME 170000Z 21009KT 9999 BKN028 BKN160 07/05 Q1022

Decode

TAF

Not found

Departure Runways

ID Width Length Bearing (true) Bearing (mag) Surface Threshold Offset Overrun Length
05 151 ft / 46 m 4,789 ft / 1,460 m 40.85° 43.92° Asphalt 0 ft / 0 m 0 ft / 0 m
11 151 ft / 46 m 5,979 ft / 1,823 m 101.95° 105.02° Asphalt 0 ft / 0 m 0 ft / 0 m
23 151 ft / 46 m 4,789 ft / 1,460 m 220.86° 223.93° Asphalt 0 ft / 0 m 0 ft / 0 m
29 151 ft / 46 m 5,979 ft / 1,823 m 281.97° 285.04° Asphalt 600 ft / 183 m 0 ft / 0 m

EGPO

Details ICAO EGPO (SYY)
Name Stornoway
Region United Kingdom
Timezone Europe/London (UTC+0.0)
Stats Elevation 26 ft / 8 m (AMSL)
Location 58.214496° -6.330596°
Runways 2
Magnetic Variation 4.031° W

METAR

EGPO 170020Z AUTO 19019KT 9999 -RA OVC004/// 07/07 Q1013

Decode

TAF

Not found

Destination Runways

ID Width Length Bearing (true) Bearing (mag) Surface Threshold Offset Overrun Length
07 75 ft / 23 m 3,574 ft / 1,090 m 59.83° 63.86° Asphalt 305 ft / 93 m 0 ft / 0 m
18 151 ft / 46 m 6,797 ft / 2,072 m 174.28° 178.31° Asphalt 0 ft / 0 m 397 ft / 121 m
25 75 ft / 23 m 3,574 ft / 1,090 m 239.84° 243.87° Asphalt 0 ft / 0 m 0 ft / 0 m
36 151 ft / 46 m 6,797 ft / 2,072 m 354.29° 358.32° Asphalt 0 ft / 0 m 394 ft / 120 m

Approach Navaids

Runway Type Ident Frequency Range Bearing (true) Bearing (mag) Slope Elevation
18 Localiser STW 110.90 MHz 18 nm / 33 km 180.37° 184.40° - 26 ft / 8 m (AMSL)
18 DME STW 110.90 MHz 18 nm / 33 km - - - 26 ft / 8 m (AMSL)
36 Localiser SOY 110.90 MHz 18 nm / 33 km 354.29° 358.32° - 26 ft / 8 m (AMSL)
36 DME SOY 110.90 MHz 18 nm / 33 km - - - 26 ft / 8 m (AMSL)